createdAt,value
2022-10-14T00:01:24.497Z,100.00
2022-10-14T00:03:55.367Z,100.00
2022-10-14T00:06:25.999Z,100.00
2022-10-14T00:08:55.098Z,100.00
2022-10-14T00:11:25.559Z,100.00
2022-10-14T00:13:57.036Z,100.00
2022-10-14T00:16:27.511Z,100.00
2022-10-14T00:18:58.389Z,100.00
2022-10-14T00:21:27.694Z,100.00
2022-10-14T00:23:57.167Z,100.00
2022-10-14T00:26:27.408Z,100.00
2022-10-14T00:28:56.204Z,100.00
2022-10-14T00:31:25.337Z,100.00
2022-10-14T00:33:53.917Z,100.00
2022-10-14T00:36:26.060Z,100.00
2022-10-14T00:38:55.691Z,100.00
2022-10-14T00:41:26.030Z,100.00
2022-10-14T00:44:01.642Z,100.00
2022-10-14T00:46:32.270Z,100.00
2022-10-14T00:49:05.319Z,100.00
2022-10-14T00:51:36.448Z,100.00
2022-10-14T00:54:05.555Z,100.00
2022-10-14T00:56:35.023Z,100.00
2022-10-14T00:59:05.966Z,100.00
2022-10-14T01:01:35.222Z,100.00
2022-10-14T01:04:03.803Z,100.00
2022-10-14T01:06:43.646Z,100.00
2022-10-14T01:09:21.716Z,100.00
2022-10-14T01:12:26.724Z,100.00
2022-10-14T01:15:00.039Z,100.00
2022-10-14T01:17:35.478Z,100.00
2022-10-14T01:20:24.458Z,100.00
2022-10-14T01:23:14.606Z,100.00
2022-10-14T01:25:56.290Z,100.00
2022-10-14T01:28:32.049Z,100.00
2022-10-14T01:31:06.007Z,100.00
2022-10-14T01:33:38.978Z,100.00
2022-10-14T01:36:14.492Z,100.00
2022-10-14T01:38:48.286Z,100.00
2022-10-14T01:41:21.440Z,100.00
2022-10-14T01:43:53.505Z,100.00
2022-10-14T01:46:24.954Z,100.00
2022-10-14T01:48:56.709Z,100.00
2022-10-14T01:51:31.260Z,100.00
2022-10-14T01:54:03.581Z,100.00
2022-10-14T01:56:39.500Z,100.00
2022-10-14T01:59:11.249Z,100.00
2022-10-14T02:01:41.079Z,100.00
2022-10-14T02:04:17.080Z,100.00
2022-10-14T02:06:51.665Z,100.00
2022-10-14T02:09:28.371Z,100.00
2022-10-14T02:12:09.811Z,100.00
2022-10-14T02:14:45.606Z,100.00
2022-10-14T02:17:23.469Z,100.00
2022-10-14T02:19:56.866Z,100.00
2022-10-14T02:22:32.948Z,100.00
2022-10-14T02:25:07.061Z,100.00
2022-10-14T02:27:38.078Z,100.00
2022-10-14T02:30:07.982Z,100.00
2022-10-14T02:32:41.765Z,100.00
2022-10-14T02:35:14.150Z,100.00
2022-10-14T02:37:43.243Z,100.00
2022-10-14T02:40:16.439Z,100.00
2022-10-14T02:42:45.035Z,100.00
2022-10-14T02:45:15.864Z,100.00
2022-10-14T02:47:45.943Z,100.00
2022-10-14T02:50:14.445Z,100.00
2022-10-14T02:52:42.913Z,100.00
2022-10-14T02:55:11.344Z,100.00
2022-10-14T02:57:39.801Z,100.00
2022-10-14T03:00:09.214Z,100.00
2022-10-14T03:02:37.796Z,100.00
2022-10-14T03:05:08.420Z,100.00
2022-10-14T03:07:36.994Z,100.00
2022-10-14T03:10:06.191Z,100.00
2022-10-14T03:12:34.937Z,100.00
2022-10-14T03:15:03.843Z,100.00
2022-10-14T03:17:32.389Z,100.00
2022-10-14T03:20:00.955Z,100.00
2022-10-14T03:22:31.002Z,100.00
2022-10-14T03:24:59.582Z,100.00
2022-10-14T03:27:28.279Z,100.00
2022-10-14T03:29:56.850Z,100.00
2022-10-14T03:32:25.392Z,100.00
2022-10-14T03:34:53.842Z,100.00
2022-10-14T03:37:22.401Z,100.00
2022-10-14T03:39:53.272Z,100.00
2022-10-14T03:42:22.068Z,100.00
2022-10-14T03:44:50.697Z,100.00
2022-10-14T03:47:19.176Z,100.00
2022-10-14T03:49:47.772Z,100.00
2022-10-14T03:52:16.406Z,100.00
2022-10-14T03:54:44.838Z,100.00
2022-10-14T03:57:14.714Z,100.00
2022-10-14T03:59:43.343Z,100.00
2022-10-14T04:02:11.943Z,100.00
2022-10-14T04:04:40.628Z,100.00
2022-10-14T04:07:09.087Z,100.00
2022-10-14T04:09:37.664Z,100.00
2022-10-14T04:12:06.643Z,100.00
2022-10-14T04:14:36.596Z,100.00
2022-10-14T04:17:05.206Z,100.00
2022-10-14T04:19:33.714Z,100.00
2022-10-14T04:22:02.253Z,100.00
2022-10-14T04:24:30.813Z,100.00
2022-10-14T04:26:59.601Z,100.00
2022-10-14T04:29:28.308Z,100.00
2022-10-14T04:31:58.314Z,100.00
2022-10-14T04:34:27.231Z,100.00
2022-10-14T04:36:55.722Z,100.00
2022-10-14T04:39:24.197Z,100.00
2022-10-14T04:41:52.777Z,100.00
2022-10-14T04:44:21.270Z,100.00
2022-10-14T04:46:49.764Z,100.00
2022-10-14T04:49:19.823Z,100.00
2022-10-14T04:51:48.379Z,100.00
2022-10-14T04:54:16.894Z,100.00
2022-10-14T04:56:45.366Z,100.00
2022-10-14T04:59:14.637Z,100.00
2022-10-14T05:01:43.197Z,100.00
2022-10-14T05:04:11.698Z,100.00
2022-10-14T05:06:41.656Z,100.00
2022-10-14T05:09:10.328Z,100.00
2022-10-14T05:11:38.914Z,100.00
2022-10-14T05:14:07.649Z,100.00
2022-10-14T05:16:36.771Z,100.00
2022-10-14T05:19:05.416Z,100.00
2022-10-14T05:21:34.016Z,100.00
2022-10-14T05:24:04.027Z,100.00
2022-10-14T05:26:32.833Z,100.00
2022-10-14T05:29:01.629Z,100.00
2022-10-14T05:31:30.159Z,100.00
2022-10-14T05:33:58.695Z,100.00
2022-10-14T05:36:27.230Z,100.00
2022-10-14T05:38:58.847Z,100.00
2022-10-14T05:41:29.738Z,100.00
2022-10-14T05:43:58.253Z,100.00
2022-10-14T05:46:26.801Z,100.00
2022-10-14T05:48:55.431Z,100.00
2022-10-14T05:51:24.371Z,100.00
2022-10-14T05:53:52.808Z,100.00
2022-10-14T05:56:21.832Z,100.00
2022-10-14T05:58:52.295Z,100.00
2022-10-14T06:01:20.808Z,100.00
2022-10-14T06:03:52.099Z,100.00
2022-10-14T06:06:23.253Z,100.00
2022-10-14T06:08:56.725Z,100.00
2022-10-14T06:11:25.539Z,100.00
2022-10-14T06:13:55.715Z,100.00
2022-10-14T06:16:24.506Z,100.00
2022-10-14T06:18:54.596Z,100.00
2022-10-14T06:21:23.233Z,100.00
2022-10-14T06:23:51.787Z,100.00
2022-10-14T06:26:20.386Z,100.00
2022-10-14T06:28:49.072Z,100.00
2022-10-14T06:31:19.249Z,100.00
2022-10-14T06:33:48.075Z,100.00
2022-10-14T06:36:16.904Z,100.00
2022-10-14T06:38:45.445Z,100.00
2022-10-14T06:41:14.065Z,100.00
2022-10-14T06:43:42.653Z,100.00
2022-10-14T06:46:11.256Z,100.00
2022-10-14T06:48:41.273Z,100.00
2022-10-14T06:51:11.488Z,100.00
2022-10-14T06:53:40.105Z,100.00
2022-10-14T06:56:12.146Z,100.00
2022-10-14T06:58:40.846Z,100.00
2022-10-14T07:01:10.583Z,100.00
2022-10-14T07:03:41.202Z,100.00
2022-10-14T07:06:11.019Z,100.00
2022-10-14T07:08:39.491Z,100.00
2022-10-14T07:11:08.347Z,100.00
2022-10-14T07:13:38.101Z,100.00
2022-10-14T07:16:07.089Z,100.00
2022-10-14T07:18:35.809Z,100.00
2022-10-14T07:21:07.399Z,100.00
2022-10-14T07:23:36.579Z,100.00
2022-10-14T07:26:05.509Z,100.00
2022-10-14T07:28:34.811Z,100.00
2022-10-14T07:31:05.799Z,100.00
2022-10-14T07:36:13.597Z,100.00
2022-10-14T07:38:44.254Z,100.00
2022-10-14T07:41:18.498Z,100.00
2022-10-14T07:43:48.091Z,100.00
2022-10-14T07:46:18.028Z,100.00
2022-10-14T07:48:56.655Z,100.00
2022-10-14T07:51:27.846Z,100.00
2022-10-14T07:53:57.872Z,100.00
2022-10-14T07:56:31.841Z,100.00
2022-10-14T07:59:00.676Z,100.00
2022-10-14T08:01:29.501Z,100.00
2022-10-14T08:03:58.242Z,100.00
2022-10-14T08:06:28.560Z,100.00
2022-10-14T08:08:57.187Z,100.00
2022-10-14T08:11:29.438Z,100.00
2022-10-14T08:14:01.029Z,100.00
2022-10-14T08:16:31.954Z,100.00
2022-10-14T08:19:12.637Z,100.00
2022-10-14T08:21:45.025Z,100.00
2022-10-14T08:24:13.758Z,100.00
2022-10-14T08:26:50.069Z,100.00
2022-10-14T08:29:19.977Z,100.00
2022-10-14T08:31:48.658Z,100.00
2022-10-14T08:34:17.286Z,100.00
2022-10-14T08:36:53.896Z,100.00
2022-10-14T08:39:22.998Z,100.00
2022-10-14T08:42:16.370Z,100.00
2022-10-14T08:44:49.011Z,100.00
2022-10-14T08:47:22.454Z,100.00
2022-10-14T08:49:59.991Z,100.00
2022-10-14T08:52:37.838Z,100.00
2022-10-14T08:55:22.298Z,100.00
2022-10-14T08:57:55.676Z,100.00
2022-10-14T09:00:24.727Z,100.00
2022-10-14T09:02:53.968Z,100.00
2022-10-14T09:05:25.259Z,100.00
2022-10-14T09:07:57.630Z,100.00
2022-10-14T09:10:32.575Z,100.00
2022-10-14T09:13:11.014Z,100.00
2022-10-14T09:15:44.690Z,100.00
2022-10-14T09:18:24.520Z,100.00
2022-10-14T09:20:54.248Z,100.00
2022-10-14T09:23:26.306Z,100.00
2022-10-14T09:25:59.112Z,100.00
2022-10-14T09:28:37.066Z,100.00
2022-10-14T09:31:06.861Z,100.00
2022-10-14T09:33:42.283Z,100.00
2022-10-14T09:36:18.205Z,100.00
2022-10-14T09:38:51.907Z,100.00
2022-10-14T09:41:24.027Z,100.00
2022-10-14T09:44:15.294Z,100.00
2022-10-14T09:46:43.974Z,100.00
2022-10-14T09:49:18.711Z,100.00
2022-10-14T09:51:47.857Z,100.00
2022-10-14T09:54:32.276Z,100.00
2022-10-14T09:57:04.641Z,100.00
2022-10-14T09:59:34.153Z,100.00
2022-10-14T10:02:05.708Z,100.00
2022-10-14T10:04:42.177Z,100.00
2022-10-14T10:07:29.510Z,100.00
2022-10-14T10:10:01.694Z,100.00
2022-10-14T10:12:32.629Z,100.00
2022-10-14T10:15:04.292Z,100.00
2022-10-14T10:17:36.353Z,100.00
2022-10-14T10:20:12.833Z,100.00
2022-10-14T10:22:42.124Z,100.00
2022-10-14T10:25:27.008Z,100.00
2022-10-14T10:27:59.150Z,99.97
2022-10-14T10:30:30.576Z,100.00
2022-10-14T10:33:17.803Z,100.00
2022-10-14T10:36:09.200Z,98.72
2022-10-14T10:38:47.320Z,97.49
2022-10-14T10:41:38.963Z,98.53
2022-10-14T10:44:32.080Z,97.70
2022-10-14T10:47:13.766Z,96.99
2022-10-14T10:52:41.483Z,94.56
2022-10-14T10:55:19.820Z,95.79
2022-10-14T10:58:03.626Z,95.64
2022-10-14T11:00:40.463Z,96.73
2022-10-14T11:03:25.356Z,95.48
2022-10-14T11:06:00.896Z,93.76
2022-10-14T11:09:01.815Z,93.85
2022-10-14T11:11:52.304Z,93.63
2022-10-14T11:14:50.761Z,91.97
2022-10-14T11:17:28.488Z,92.14
2022-10-14T11:20:06.157Z,90.67
2022-10-14T11:22:52.535Z,88.72
2022-10-14T11:25:27.593Z,90.94
2022-10-14T11:28:06.184Z,89.91
2022-10-14T11:30:45.263Z,92.27
2022-10-14T11:33:29.936Z,92.30
2022-10-14T11:36:10.915Z,89.45
2022-10-14T11:39:04.828Z,89.45
2022-10-14T11:41:46.241Z,90.18
2022-10-14T11:44:23.948Z,89.16
2022-10-14T11:46:58.783Z,89.92
2022-10-14T11:49:31.668Z,89.75
2022-10-14T11:52:04.365Z,89.57
2022-10-14T11:54:38.196Z,90.19
2022-10-14T11:57:12.835Z,89.72
2022-10-14T12:00:03.338Z,88.32
2022-10-14T12:02:42.457Z,88.68
2022-10-14T12:05:20.101Z,88.46
2022-10-14T12:08:01.433Z,87.94
2022-10-14T12:10:34.516Z,89.33
2022-10-14T12:13:08.130Z,88.53
2022-10-14T12:15:39.288Z,88.18
2022-10-14T12:18:09.306Z,88.08
2022-10-14T12:20:44.827Z,86.95
2022-10-14T12:23:19.324Z,86.35
2022-10-14T12:25:55.133Z,87.75
2022-10-14T12:28:24.141Z,87.99
2022-10-14T12:30:52.801Z,88.06
2022-10-14T12:33:23.239Z,87.52
2022-10-14T12:36:01.588Z,87.99
2022-10-14T12:38:34.838Z,88.58
2022-10-14T12:41:36.335Z,88.75
2022-10-14T12:44:06.154Z,89.00
2022-10-14T12:46:44.633Z,88.78
2022-10-14T12:49:25.162Z,88.96
2022-10-14T12:51:58.123Z,89.42
2022-10-14T12:54:27.486Z,89.70
2022-10-14T12:56:58.521Z,89.65
2022-10-14T12:59:31.974Z,89.50
2022-10-14T13:02:04.795Z,89.31
2022-10-14T13:04:35.436Z,89.84
2022-10-14T13:07:41.947Z,89.77
2022-10-14T13:10:46.814Z,88.11
2022-10-14T13:14:00.122Z,89.93
2022-10-14T13:16:57.749Z,90.27
2022-10-14T13:19:46.972Z,90.68
2022-10-14T13:22:40.967Z,90.12
2022-10-14T13:25:22.958Z,90.92
2022-10-14T13:27:59.967Z,90.50
2022-10-14T13:30:37.549Z,90.60
2022-10-14T13:33:15.970Z,90.04
2022-10-14T13:36:05.889Z,90.08
2022-10-14T13:38:36.203Z,90.47
2022-10-14T13:41:06.707Z,89.88
2022-10-14T13:43:40.131Z,89.83
2022-10-14T13:46:11.464Z,89.82
2022-10-14T13:48:42.941Z,89.07
2022-10-14T13:51:37.847Z,89.00
2022-10-14T13:54:21.320Z,85.62
2022-10-14T13:57:34.691Z,83.27
2022-10-14T14:00:38.136Z,84.00
2022-10-14T14:02:40.245Z,84.13
2022-10-14T14:05:17.578Z,83.90
2022-10-14T14:08:30.614Z,83.17
2022-10-14T14:10:51.583Z,83.82
2022-10-14T14:13:27.880Z,83.13
2022-10-14T14:15:57.349Z,83.91
2022-10-14T14:18:38.043Z,85.92
2022-10-14T14:21:17.381Z,85.07
2022-10-14T14:23:55.655Z,85.12
2022-10-14T14:26:30.587Z,85.66
2022-10-14T14:28:59.113Z,85.77
2022-10-14T14:31:47.898Z,86.19
2022-10-14T14:34:20.727Z,86.39
2022-10-14T14:36:55.394Z,86.81
2022-10-14T14:39:30.637Z,86.98
2022-10-14T14:42:01.113Z,87.00
2022-10-14T14:44:34.990Z,87.34
2022-10-14T14:47:05.545Z,86.76
2022-10-14T14:49:38.702Z,87.15
2022-10-14T14:52:08.103Z,87.33
2022-10-14T14:54:45.903Z,87.71
2022-10-14T14:57:19.954Z,87.76
2022-10-14T14:59:57.504Z,87.85
2022-10-14T15:02:26.611Z,87.83
2022-10-14T15:05:05.128Z,87.82
2022-10-14T15:07:34.023Z,87.60
2022-10-14T15:10:06.258Z,87.62
2022-10-14T15:12:39.601Z,87.62
2022-10-14T15:15:27.112Z,87.20
2022-10-14T15:18:13.160Z,87.30
2022-10-14T15:20:43.210Z,87.26
2022-10-14T15:23:40.508Z,87.30
2022-10-14T15:26:24.616Z,87.69
2022-10-14T15:29:16.099Z,88.04
2022-10-14T15:31:46.557Z,88.10
2022-10-14T15:34:23.392Z,88.09
2022-10-14T15:36:57.374Z,88.14
2022-10-14T15:39:26.044Z,88.45
2022-10-14T15:41:56.029Z,88.87
2022-10-14T15:44:24.701Z,89.06
2022-10-14T15:47:10.237Z,88.95
2022-10-14T15:49:43.960Z,89.16
2022-10-14T15:52:15.720Z,89.05
2022-10-14T15:54:46.419Z,89.74
2022-10-14T15:57:17.078Z,89.86
2022-10-14T15:59:46.490Z,90.32
2022-10-14T16:02:19.752Z,90.30
2022-10-14T16:05:18.336Z,90.46
2022-10-14T16:07:37.023Z,90.44
2022-10-14T16:10:07.503Z,90.82
2022-10-14T16:12:37.522Z,91.83
2022-10-14T16:15:31.802Z,92.29
2022-10-14T16:18:00.695Z,92.52
2022-10-14T16:20:31.003Z,93.23
2022-10-14T16:23:00.143Z,93.27
2022-10-14T16:25:33.141Z,93.90
2022-10-14T16:28:07.601Z,94.04
2022-10-14T16:30:39.961Z,94.27
2022-10-14T16:33:08.877Z,95.06
2022-10-14T16:35:37.356Z,96.83
2022-10-14T16:38:06.420Z,99.86
2022-10-14T16:40:36.807Z,96.93
2022-10-14T16:43:07.338Z,96.19
2022-10-14T16:45:35.767Z,96.11
2022-10-14T16:48:04.085Z,96.39
2022-10-14T16:50:32.363Z,96.23
2022-10-14T16:53:18.137Z,96.45
2022-10-14T16:55:46.399Z,99.29
2022-10-14T16:58:16.718Z,100.00
2022-10-14T17:00:45.331Z,98.18
2022-10-14T17:03:13.921Z,96.57
2022-10-14T17:05:42.565Z,96.68
2022-10-14T17:08:11.342Z,96.54
2022-10-14T17:10:40.520Z,96.78
2022-10-14T17:13:08.986Z,97.38
2022-10-14T17:15:39.842Z,97.35
2022-10-14T17:18:12.125Z,97.26
2022-10-14T17:20:44.169Z,100.00
2022-10-14T17:23:15.669Z,100.00
2022-10-14T17:25:46.871Z,98.13
2022-10-14T17:28:15.773Z,97.64
2022-10-14T17:30:45.689Z,97.78
2022-10-14T17:33:14.082Z,97.87
2022-10-14T17:35:42.717Z,97.51
2022-10-14T17:38:11.259Z,97.67
2022-10-14T17:40:39.946Z,97.87
2022-10-14T17:43:08.731Z,98.19
2022-10-14T17:45:38.550Z,98.09
2022-10-14T17:48:08.717Z,98.33
2022-10-14T17:50:37.621Z,98.10
2022-10-14T17:53:06.140Z,98.97
2022-10-14T17:55:37.475Z,100.00
2022-10-14T17:58:05.956Z,100.00
2022-10-14T18:00:34.407Z,100.00
2022-10-14T18:03:02.918Z,100.00
2022-10-14T18:05:32.880Z,100.00
2022-10-14T18:08:01.382Z,100.00
2022-10-14T18:10:29.867Z,100.00
2022-10-14T18:12:58.758Z,100.00
2022-10-14T18:15:31.282Z,98.16
2022-10-14T18:18:00.484Z,98.34
2022-10-14T18:20:28.986Z,98.97
2022-10-14T18:23:03.067Z,100.00
2022-10-14T18:25:32.201Z,100.00
2022-10-14T18:28:00.681Z,100.00
2022-10-14T18:30:29.313Z,100.00
2022-10-14T18:32:58.019Z,100.00
2022-10-14T18:35:26.826Z,100.00
2022-10-14T18:37:55.431Z,100.00
2022-10-14T18:40:25.367Z,100.00
2022-10-14T18:42:57.804Z,100.00
2022-10-14T18:45:26.278Z,100.00
2022-10-14T18:47:54.765Z,100.00
2022-10-14T18:50:23.405Z,100.00
2022-10-14T18:52:52.253Z,100.00
2022-10-14T18:55:20.743Z,100.00
2022-10-14T18:57:51.459Z,100.00
2022-10-14T19:00:20.672Z,100.00
2022-10-14T19:02:49.205Z,100.00
2022-10-14T19:05:18.246Z,100.00
2022-10-14T19:07:47.639Z,100.00
2022-10-14T19:10:16.552Z,100.00
2022-10-14T19:12:45.151Z,100.00
2022-10-14T19:15:15.071Z,100.00
2022-10-14T19:17:45.961Z,100.00
2022-10-14T19:20:15.795Z,100.00
2022-10-14T19:22:45.555Z,100.00
2022-10-14T19:25:14.003Z,100.00
2022-10-14T19:27:43.043Z,100.00
2022-10-14T19:30:12.377Z,100.00
2022-10-14T19:32:42.579Z,100.00
2022-10-14T19:35:11.069Z,100.00
2022-10-14T19:37:39.578Z,100.00
2022-10-14T19:40:09.717Z,100.00
2022-10-14T19:42:38.192Z,100.00
2022-10-14T19:45:07.383Z,100.00
2022-10-14T19:47:36.052Z,100.00
2022-10-14T19:50:07.301Z,100.00
2022-10-14T19:52:35.790Z,100.00
2022-10-14T19:55:04.275Z,100.00
2022-10-14T19:57:32.855Z,100.00
2022-10-14T20:00:01.293Z,100.00
2022-10-14T20:02:29.795Z,100.00
2022-10-14T20:04:58.279Z,100.00
2022-10-14T20:07:28.697Z,100.00
2022-10-14T20:10:02.022Z,100.00
2022-10-14T20:12:31.581Z,100.00
2022-10-14T20:14:59.989Z,100.00
2022-10-14T20:17:28.888Z,100.00
2022-10-14T20:19:57.729Z,100.00
2022-10-14T20:22:27.867Z,100.00
2022-10-14T20:24:56.387Z,100.00
2022-10-14T20:27:25.202Z,100.00
2022-10-14T20:29:54.138Z,100.00
2022-10-14T20:32:22.878Z,100.00
2022-10-14T20:34:51.343Z,100.00
2022-10-14T20:37:23.014Z,100.00
2022-10-14T20:39:55.705Z,100.00
2022-10-14T20:42:24.242Z,100.00
2022-10-14T20:44:52.673Z,100.00
2022-10-14T20:47:21.431Z,100.00
2022-10-14T20:49:50.240Z,100.00
2022-10-14T20:52:18.786Z,100.00
2022-10-14T20:54:47.299Z,100.00
2022-10-14T20:57:17.208Z,100.00
2022-10-14T20:59:45.807Z,100.00
2022-10-14T21:02:17.155Z,100.00
2022-10-14T21:04:48.718Z,100.00
2022-10-14T21:07:18.158Z,100.00
2022-10-14T21:09:46.751Z,100.00
2022-10-14T21:12:16.957Z,100.00
2022-10-14T21:14:45.519Z,100.00
2022-10-14T21:17:13.968Z,100.00
2022-10-14T21:19:42.622Z,100.00
2022-10-14T21:22:11.513Z,100.00
2022-10-14T21:24:42.018Z,100.00
2022-10-14T21:27:10.508Z,100.00
2022-10-14T21:29:40.645Z,100.00
2022-10-14T21:32:09.138Z,100.00
2022-10-14T21:34:37.623Z,100.00
2022-10-14T21:37:06.302Z,100.00
2022-10-14T21:39:34.880Z,100.00
2022-10-14T21:42:03.370Z,100.00
2022-10-14T21:44:31.795Z,100.00
2022-10-14T21:47:01.783Z,100.00
2022-10-14T21:49:30.237Z,100.00
2022-10-14T21:51:58.838Z,100.00
2022-10-14T21:54:27.653Z,100.00
2022-10-14T21:59:24.624Z,100.00
2022-10-14T22:01:56.628Z,100.00
2022-10-14T22:04:27.412Z,100.00
2022-10-14T22:06:55.900Z,100.00
2022-10-14T22:09:24.336Z,100.00
2022-10-14T22:11:54.597Z,100.00
2022-10-14T22:14:23.106Z,100.00
2022-10-14T22:16:51.513Z,100.00
2022-10-14T22:19:19.954Z,100.00
2022-10-14T22:21:50.407Z,100.00
2022-10-14T22:24:18.914Z,100.00
2022-10-14T22:26:47.311Z,100.00
2022-10-14T22:29:17.268Z,100.00
2022-10-14T22:31:46.395Z,100.00
2022-10-14T22:34:16.723Z,100.00
2022-10-14T22:36:46.586Z,100.00
2022-10-14T22:39:18.747Z,100.00
2022-10-14T22:41:47.230Z,100.00
2022-10-14T22:44:15.762Z,100.00
2022-10-14T22:46:47.243Z,100.00
2022-10-14T22:49:15.746Z,100.00
2022-10-14T22:51:44.173Z,100.00
2022-10-14T22:54:12.910Z,100.00
2022-10-14T22:56:42.764Z,100.00
2022-10-14T22:59:13.083Z,100.00
2022-10-14T23:01:42.793Z,100.00
2022-10-14T23:04:12.347Z,100.00
2022-10-14T23:06:43.960Z,100.00
2022-10-14T23:09:12.521Z,100.00
2022-10-14T23:11:42.733Z,100.00
2022-10-14T23:14:11.367Z,100.00
2022-10-14T23:16:40.729Z,100.00
2022-10-14T23:19:09.396Z,100.00
2022-10-14T23:21:39.606Z,100.00
2022-10-14T23:24:10.323Z,100.00
2022-10-14T23:26:39.312Z,100.00
2022-10-14T23:29:11.774Z,100.00
2022-10-14T23:31:41.287Z,100.00
2022-10-14T23:34:13.480Z,100.00
2022-10-14T23:36:42.808Z,100.00
2022-10-14T23:39:11.529Z,100.00
2022-10-14T23:41:40.285Z,100.00
2022-10-14T23:44:11.784Z,100.00
2022-10-14T23:46:40.227Z,100.00
2022-10-14T23:49:25.050Z,100.00
2022-10-14T23:51:54.582Z,100.00
2022-10-14T23:54:23.165Z,100.00
2022-10-14T23:56:51.770Z,100.00
2022-10-14T23:59:21.790Z,100.00
